createdAt,value
2024-02-24T00:00:15.709Z,95
2024-02-24T00:01:17.735Z,95.1
2024-02-24T00:02:19.959Z,95.2
2024-02-24T00:03:23.544Z,95.3
2024-02-24T00:04:24.081Z,95.3
2024-02-24T00:05:26.128Z,95.3
2024-02-24T00:06:27.979Z,95.5
2024-02-24T00:07:29.850Z,95.4
2024-02-24T00:08:32.001Z,95.5
2024-02-24T00:09:33.830Z,95.5
2024-02-24T00:10:35.826Z,95.5
2024-02-24T00:11:38.211Z,95.5
2024-02-24T00:12:40.191Z,95.5
2024-02-24T00:13:41.854Z,95.5
2024-02-24T00:14:44.016Z,95.5
2024-02-24T00:15:46.050Z,95.3
2024-02-24T00:16:47.868Z,95.3
2024-02-24T00:17:50.272Z,95.4
2024-02-24T00:18:51.847Z,95.3
2024-02-24T00:19:53.816Z,95.2
2024-02-24T00:20:55.829Z,95.2
2024-02-24T00:21:57.859Z,95.2
2024-02-24T00:22:59.813Z,95.2
2024-02-24T00:24:01.833Z,95.1
2024-02-24T00:25:03.933Z,95
2024-02-24T00:26:06.028Z,95
2024-02-24T00:27:07.878Z,95
2024-02-24T00:28:09.817Z,95.1
2024-02-24T00:29:12.176Z,95.1
2024-02-24T00:30:13.799Z,95.2
2024-02-24T00:31:15.846Z,95.3
2024-02-24T00:32:18.209Z,95.3
2024-02-24T00:33:20.414Z,95.4
2024-02-24T00:34:21.924Z,95.4
2024-02-24T00:35:24.193Z,95.4
2024-02-24T00:36:25.806Z,95.3
2024-02-24T00:37:27.810Z,95.3
2024-02-24T00:38:30.076Z,95.4
2024-02-24T00:39:31.804Z,95.5
2024-02-24T00:40:33.892Z,95.6
2024-02-24T00:41:35.942Z,95.8
2024-02-24T00:42:37.946Z,95.8
2024-02-24T00:43:39.785Z,95.8
2024-02-24T00:44:42.120Z,96
2024-02-24T00:45:43.782Z,96
2024-02-24T00:46:45.804Z,96.1
2024-02-24T00:47:48.320Z,96.1
2024-02-24T00:48:49.993Z,96.1
2024-02-24T00:49:51.819Z,96.2
2024-02-24T00:50:53.802Z,96.2
2024-02-24T00:51:55.781Z,96.3
2024-02-24T00:52:57.759Z,96.4
2024-02-24T00:53:59.803Z,96.4
2024-02-24T00:55:01.789Z,96.6
2024-02-24T00:56:04.076Z,96.7
2024-02-24T00:57:05.767Z,96.7
2024-02-24T00:58:07.769Z,96.7
2024-02-24T00:59:09.924Z,96.7
2024-02-24T01:00:11.788Z,96.8
2024-02-24T01:01:13.814Z,96.8
2024-02-24T01:02:16.094Z,96.9
2024-02-24T01:03:17.825Z,96.9
2024-02-24T01:04:25.772Z,96.9
2024-02-24T01:05:26.821Z,97
2024-02-24T01:06:28.762Z,97.1
2024-02-24T01:07:30.950Z,97.2
2024-02-24T01:08:33.017Z,97.3
2024-02-24T01:09:34.806Z,97.3
2024-02-24T01:10:36.773Z,97.4
2024-02-24T01:11:38.968Z,97.5
2024-02-24T01:12:40.802Z,97.5
2024-02-24T01:13:42.842Z,97.5
2024-02-24T01:14:45.072Z,97.5
2024-02-24T01:15:46.771Z,97.6
2024-02-24T01:16:48.843Z,97.6
2024-02-24T01:17:51.261Z,97.7
2024-02-24T01:18:53.317Z,97.7
2024-02-24T01:19:54.771Z,97.8
2024-02-24T01:20:57.020Z,97.9
2024-02-24T01:21:59.099Z,97.9
2024-02-24T01:23:00.789Z,98
2024-02-24T01:24:02.909Z,98
2024-02-24T01:25:04.778Z,98.1
2024-02-24T01:26:07.046Z,98.1
2024-02-24T01:27:08.782Z,98.2
2024-02-24T01:28:10.737Z,98.3
2024-02-24T01:29:12.922Z,98.4
2024-02-24T01:30:14.730Z,98.5
2024-02-24T01:31:16.770Z,98.5
2024-02-24T01:32:19.141Z,98.7
2024-02-24T01:33:21.171Z,98.7
2024-02-24T01:34:22.949Z,98.8
2024-02-24T01:35:24.944Z,98.9
2024-02-24T01:36:26.751Z,98.8
2024-02-24T01:37:28.741Z,98.7
2024-02-24T01:38:30.940Z,98.7
2024-02-24T01:39:32.730Z,98.7
2024-02-24T01:40:34.756Z,98.8
2024-02-24T01:41:36.922Z,98.8
2024-02-24T01:42:38.783Z,98.9
2024-02-24T01:43:40.737Z,99
2024-02-24T01:44:42.783Z,99
2024-02-24T01:45:44.727Z,99.1
2024-02-24T01:46:46.716Z,99.1
2024-02-24T01:47:48.987Z,99.2
2024-02-24T01:48:51.060Z,99.2
2024-02-24T01:49:52.759Z,99.2
2024-02-24T01:50:55.145Z,99.2
2024-02-24T01:51:56.723Z,99.3
2024-02-24T01:52:58.707Z,99.3
2024-02-24T01:54:00.709Z,99.4
2024-02-24T01:55:02.749Z,99.4
2024-02-24T01:56:05.076Z,99.4
2024-02-24T01:57:06.699Z,99.4
2024-02-24T01:58:08.910Z,99.4
2024-02-24T01:59:10.951Z,99.4
2024-02-24T02:00:12.718Z,99.5
2024-02-24T02:01:15.049Z,99.5
2024-02-24T02:02:17.108Z,99.6
2024-02-24T02:03:18.708Z,99.6
2024-02-24T02:04:20.962Z,99.6
2024-02-24T02:05:23.022Z,99.6
2024-02-24T02:06:25.086Z,99.6
2024-02-24T02:07:26.684Z,99.6
2024-02-24T02:08:28.850Z,99.6
2024-02-24T02:09:30.734Z,99.6
2024-02-24T02:10:32.924Z,99.6
2024-02-24T02:11:52.247Z,99.6
2024-02-24T02:13:01.115Z,99.7
2024-02-24T02:14:02.649Z,99.7
2024-02-24T02:15:04.644Z,99.7
2024-02-24T02:16:06.623Z,99.7
2024-02-24T02:17:08.937Z,99.8
2024-02-24T02:18:11.000Z,99.8
2024-02-24T02:19:13.057Z,99.8
2024-02-24T02:20:14.807Z,99.9
2024-02-24T02:21:16.631Z,99.9
2024-02-24T02:22:18.935Z,99.9
2024-02-24T02:23:20.975Z,99.9
2024-02-24T02:24:22.614Z,99.9
2024-02-24T02:25:24.596Z,99.9
2024-02-24T02:26:27.110Z,99.9
2024-02-24T02:27:28.635Z,99.9
2024-02-24T02:28:30.591Z,99.9
2024-02-24T02:29:32.961Z,99.9
2024-02-24T02:30:34.608Z,99.9
2024-02-24T02:31:36.596Z,99.9
2024-02-24T02:32:38.906Z,99.9
2024-02-24T02:33:41.249Z,99.9
2024-02-24T02:34:42.592Z,99.9
2024-02-24T02:35:45.014Z,99.9
2024-02-24T02:36:46.658Z,99.9
2024-02-24T02:37:48.587Z,99.9
2024-02-24T02:38:51.998Z,99.9
2024-02-24T02:39:52.707Z,99.9
2024-02-24T02:40:54.612Z,99.9
2024-02-24T02:41:56.606Z,99.9
2024-02-24T02:42:58.589Z,99.9
2024-02-24T02:44:00.821Z,99.9
2024-02-24T02:45:02.596Z,99.9
2024-02-24T02:46:04.602Z,99.9
2024-02-24T02:47:20.082Z,99.9
2024-02-24T02:48:24.754Z,99.9
2024-02-24T02:49:26.881Z,99.9
2024-02-24T02:50:28.505Z,99.9
2024-02-24T02:51:30.545Z,99.9
2024-02-24T02:52:32.327Z,99.9
2024-02-24T02:53:34.683Z,99.9
2024-02-24T02:54:36.317Z,99.9
2024-02-24T02:55:38.317Z,99.9
2024-02-24T02:56:40.551Z,99.9
2024-02-24T02:57:42.567Z,99.9
2024-02-24T02:58:44.315Z,99.9
2024-02-24T02:59:47.201Z,99.9
2024-02-24T03:00:48.808Z,99.8
2024-02-24T03:01:50.310Z,99.8
2024-02-24T03:02:52.572Z,99.9
2024-02-24T03:03:54.615Z,99.9
2024-02-24T03:04:56.327Z,99.9
2024-02-24T03:05:58.455Z,99.9
2024-02-24T03:07:00.305Z,99.8
2024-02-24T03:08:02.308Z,99.9
2024-02-24T03:09:04.320Z,99.9
2024-02-24T03:10:06.660Z,99.9
2024-02-24T03:11:08.724Z,99.9
2024-02-24T03:12:10.990Z,99.9
2024-02-24T03:13:12.286Z,99.9
2024-02-24T03:14:14.358Z,99.9
2024-02-24T03:15:16.273Z,99.9
2024-02-24T03:16:18.287Z,99.9
2024-02-24T03:17:20.405Z,99.9
2024-02-24T03:18:22.486Z,99.9
2024-02-24T03:19:24.546Z,99.9
2024-02-24T03:20:26.310Z,99.9
2024-02-24T03:21:28.605Z,99.9
2024-02-24T03:22:30.353Z,99.9
2024-02-24T03:23:32.800Z,99.9
2024-02-24T03:24:34.273Z,99.9
2024-02-24T03:25:36.276Z,99.9
2024-02-24T03:26:38.616Z,99.9
2024-02-24T03:27:40.264Z,99.9
2024-02-24T03:28:42.310Z,99.9
2024-02-24T03:29:44.785Z,99.9
2024-02-24T03:30:46.269Z,99.9
2024-02-24T03:31:48.266Z,99.9
2024-02-24T03:32:50.655Z,99.9
2024-02-24T03:33:52.712Z,99.9
2024-02-24T03:34:54.253Z,99.9
2024-02-24T03:35:56.466Z,99.9
2024-02-24T03:36:58.271Z,99.9
2024-02-24T03:38:00.302Z,99.9
2024-02-24T03:39:02.291Z,99.9
2024-02-24T03:40:04.242Z,99.9
2024-02-24T03:41:06.463Z,99.9
2024-02-24T03:42:08.476Z,99.9
2024-02-24T03:43:10.238Z,99.9
2024-02-24T03:44:12.299Z,99.9
2024-02-24T03:45:14.241Z,99.9
2024-02-24T03:46:16.275Z,99.9
2024-02-24T03:47:18.412Z,99.9
2024-02-24T03:48:20.559Z,99.9
2024-02-24T03:49:22.582Z,99.9
2024-02-24T03:50:24.318Z,99.9
2024-02-24T03:51:26.354Z,99.9
2024-02-24T03:52:28.230Z,99.9
2024-02-24T03:53:30.491Z,99.9
2024-02-24T03:54:32.545Z,99.9
2024-02-24T03:55:34.370Z,99.9
2024-02-24T03:56:36.334Z,99.9
2024-02-24T03:57:38.416Z,99.9
2024-02-24T03:58:40.222Z,99.9
2024-02-24T03:59:42.503Z,99.9
2024-02-24T04:00:44.315Z,99.9
2024-02-24T04:01:46.230Z,99.8
2024-02-24T04:02:48.494Z,99.8
2024-02-24T04:03:50.423Z,99.8
2024-02-24T04:04:52.254Z,99.8
2024-02-24T04:05:54.566Z,99.7
2024-02-24T04:06:56.586Z,99.7
2024-02-24T04:07:58.217Z,99.7
2024-02-24T04:09:00.447Z,99.7
2024-02-24T04:10:02.462Z,99.7
2024-02-24T04:11:04.500Z,99.7
2024-02-24T04:12:06.569Z,99.8
2024-02-24T04:13:08.242Z,99.8
2024-02-24T04:14:10.360Z,99.8
2024-02-24T04:15:12.225Z,99.9
2024-02-24T04:16:14.447Z,99.9
2024-02-24T04:17:16.520Z,99.9
2024-02-24T04:18:18.700Z,99.9
2024-02-24T04:19:20.680Z,99.9
2024-02-24T04:20:22.374Z,99.9
2024-02-24T04:21:24.199Z,99.9
2024-02-24T04:22:26.192Z,99.9
2024-02-24T04:23:28.604Z,99.9
2024-02-24T04:24:30.288Z,99.9
2024-02-24T04:25:32.228Z,99.9
2024-02-24T04:26:34.385Z,99.9
2024-02-24T04:27:36.197Z,99.9
2024-02-24T04:28:38.488Z,99.9
2024-02-24T04:29:40.574Z,99.8
2024-02-24T04:30:42.187Z,99.7
2024-02-24T04:31:44.193Z,99.7
2024-02-24T04:32:46.464Z,99.6
2024-02-24T04:33:48.821Z,99.5
2024-02-24T04:34:50.180Z,99.3
2024-02-24T04:35:52.919Z,99.2
2024-02-24T04:36:54.186Z,99
2024-02-24T04:37:56.209Z,98.9
2024-02-24T04:38:58.245Z,98.8
2024-02-24T04:40:00.481Z,98.7
2024-02-24T04:41:02.199Z,98.5
2024-02-24T04:42:04.173Z,98.4
2024-02-24T04:43:06.339Z,98.3
2024-02-24T04:44:08.402Z,98.3
2024-02-24T04:45:10.168Z,98.2
2024-02-24T04:46:12.160Z,98.2
2024-02-24T04:47:14.229Z,98.1
2024-02-24T04:48:16.755Z,98
2024-02-24T04:49:18.756Z,97.9
2024-02-24T04:50:20.204Z,97.8
2024-02-24T04:51:22.144Z,97.8
2024-02-24T04:52:24.188Z,97.8
2024-02-24T04:53:26.279Z,97.7
2024-02-24T04:54:28.185Z,97.7
2024-02-24T04:55:30.179Z,97.6
2024-02-24T04:56:32.528Z,97.5
2024-02-24T04:57:34.189Z,97.6
2024-02-24T04:58:36.162Z,97.6
2024-02-24T04:59:38.359Z,97.7
2024-02-24T05:00:40.368Z,97.7
2024-02-24T05:01:42.167Z,97.8
2024-02-24T05:02:44.486Z,97.8
2024-02-24T05:03:46.179Z,97.8
2024-02-24T05:04:48.574Z,97.7
2024-02-24T05:05:50.340Z,97.7
2024-02-24T05:06:52.458Z,97.7
2024-02-24T05:07:54.458Z,97.6
2024-02-24T05:08:56.537Z,97.6
2024-02-24T05:09:58.133Z,97.6
2024-02-24T05:11:00.298Z,97.7
2024-02-24T05:12:02.393Z,97.7
2024-02-24T05:13:06.854Z,97.7
2024-02-24T05:14:07.389Z,97.8
2024-02-24T05:15:09.158Z,97.8
2024-02-24T05:16:11.161Z,97.8
2024-02-24T05:17:13.169Z,97.8
2024-02-24T05:18:15.693Z,97.8
2024-02-24T05:19:17.424Z,97.8
2024-02-24T05:20:19.420Z,97.8
2024-02-24T05:21:21.128Z,97.9
2024-02-24T05:22:23.171Z,97.9
2024-02-24T05:23:25.296Z,97.9
2024-02-24T05:24:27.134Z,97.8
2024-02-24T05:25:29.148Z,97.9
2024-02-24T05:26:31.416Z,97.9
2024-02-24T05:27:33.301Z,97.7
2024-02-24T05:28:35.113Z,97.7
2024-02-24T05:29:37.278Z,97.7
2024-02-24T05:30:39.130Z,97.7
2024-02-24T05:31:41.121Z,97.6
2024-02-24T05:32:43.489Z,97.6
2024-02-24T05:33:45.706Z,97.6
2024-02-24T05:34:47.281Z,97.7
2024-02-24T05:35:49.323Z,97.7
2024-02-24T05:36:51.102Z,97.7
2024-02-24T05:37:53.107Z,97.7
2024-02-24T05:38:55.487Z,97.8
2024-02-24T05:39:57.098Z,98
2024-02-24T05:40:59.100Z,98
2024-02-24T05:42:01.332Z,98.1
2024-02-24T05:43:03.161Z,98.2
2024-02-24T05:44:05.121Z,98.2
2024-02-24T05:45:07.103Z,98.2
2024-02-24T05:46:09.229Z,98.2
2024-02-24T05:47:11.163Z,98.2
2024-02-24T05:48:13.426Z,98.3
2024-02-24T05:49:15.442Z,98.3
2024-02-24T05:50:17.472Z,98.3
2024-02-24T05:51:19.200Z,98.3
2024-02-24T05:52:21.121Z,98.3
2024-02-24T05:53:23.339Z,98.2
2024-02-24T05:54:25.092Z,98.3
2024-02-24T05:55:27.096Z,98.4
2024-02-24T05:56:29.272Z,98.4
2024-02-24T05:57:31.226Z,98.3
2024-02-24T05:58:33.100Z,98.3
2024-02-24T05:59:35.345Z,98.2
2024-02-24T06:00:37.406Z,98.2
2024-02-24T06:01:39.472Z,98.2
2024-02-24T06:02:41.228Z,98.1
2024-02-24T06:03:43.886Z,98.2
2024-02-24T06:04:45.322Z,98.2
2024-02-24T06:05:47.488Z,98.2
2024-02-24T06:06:49.779Z,98.2
2024-02-24T06:07:53.530Z,98.2
2024-02-24T06:08:54.560Z,98.2
2024-02-24T06:09:56.061Z,98.2
2024-02-24T06:10:58.246Z,98.1
2024-02-24T06:12:00.330Z,98.1
2024-02-24T06:13:02.352Z,98.1
2024-02-24T06:14:04.092Z,98.2
2024-02-24T06:15:06.062Z,98.1
2024-02-24T06:16:08.102Z,98.1
2024-02-24T06:17:10.125Z,98.1
2024-02-24T06:18:12.374Z,98.1
2024-02-24T06:19:14.391Z,98.1
2024-02-24T06:20:16.156Z,98.1
2024-02-24T06:21:18.076Z,98
2024-02-24T06:22:20.042Z,97.9
2024-02-24T06:23:22.312Z,97.9
2024-02-24T06:24:24.074Z,97.9
2024-02-24T06:25:26.075Z,97.9
2024-02-24T06:26:28.173Z,97.9
2024-02-24T06:27:30.039Z,97.8
2024-02-24T06:28:32.071Z,97.8
2024-02-24T06:29:34.686Z,97.8
2024-02-24T06:30:36.080Z,97.7
2024-02-24T06:31:38.109Z,97.7
2024-02-24T06:32:40.240Z,97.8
2024-02-24T06:33:42.284Z,97.8
2024-02-24T06:34:44.335Z,97.8
2024-02-24T06:35:46.378Z,97.7
2024-02-24T06:36:48.390Z,97.6
2024-02-24T06:37:50.047Z,97.6
2024-02-24T06:38:52.245Z,97.5
2024-02-24T06:39:54.065Z,97.4
2024-02-24T06:40:56.026Z,97.3
2024-02-24T06:41:58.064Z,97.4
2024-02-24T06:43:00.042Z,97.4
2024-02-24T06:44:02.482Z,97.4
2024-02-24T06:45:04.087Z,97.4
2024-02-24T06:46:06.028Z,97.4
2024-02-24T06:47:25.248Z,97.5
2024-02-24T06:48:30.248Z,97.5
2024-02-24T06:49:31.743Z,97.5
2024-02-24T06:50:33.940Z,97.5
2024-02-24T06:51:35.656Z,97.3
2024-02-24T06:52:37.677Z,97.3
2024-02-24T06:53:39.932Z,97.2
2024-02-24T06:54:41.657Z,97.2
2024-02-24T06:55:43.657Z,97.2
2024-02-24T06:56:45.881Z,97.2
2024-02-24T06:57:47.713Z,97.2
2024-02-24T06:58:49.696Z,97.2
2024-02-24T06:59:52.141Z,97.3
2024-02-24T07:00:53.820Z,97.3
2024-02-24T07:01:55.678Z,97.2
2024-02-24T07:02:57.946Z,97.3
2024-02-24T07:03:59.660Z,97.4
2024-02-24T07:05:02.004Z,97.3
2024-02-24T07:06:04.437Z,97.3
2024-02-24T07:07:05.722Z,97.3
2024-02-24T07:08:07.803Z,97.2
2024-02-24T07:09:09.649Z,97.1
2024-02-24T07:10:11.655Z,97.2
2024-02-24T07:11:14.073Z,97.2
2024-02-24T07:12:15.702Z,97.2
2024-02-24T07:13:17.631Z,97.2
2024-02-24T07:14:19.884Z,97.2
2024-02-24T07:15:21.652Z,96.8
2024-02-24T07:16:23.697Z,96.7
2024-02-24T07:17:25.770Z,96.7
2024-02-24T07:18:27.852Z,96.6
2024-02-24T07:19:29.909Z,96.6
2024-02-24T07:20:31.924Z,96.7
2024-02-24T07:21:33.664Z,96.8
2024-02-24T07:22:35.710Z,96.7
2024-02-24T07:23:37.658Z,96.8
2024-02-24T07:24:39.613Z,96.7
2024-02-24T07:25:41.638Z,96.7
2024-02-24T07:26:49.204Z,96.7
2024-02-24T07:27:51.435Z,96.7
2024-02-24T07:28:53.622Z,96.7
2024-02-24T07:29:55.964Z,96.7
2024-02-24T07:30:57.507Z,96.6
2024-02-24T07:31:59.489Z,96.5
2024-02-24T07:33:01.959Z,96.3
2024-02-24T07:34:03.963Z,96.3
2024-02-24T07:35:05.463Z,96.2
2024-02-24T07:36:07.460Z,96.3
2024-02-24T07:37:10.869Z,96.4
2024-02-24T07:38:11.469Z,96.5
2024-02-24T07:39:13.875Z,96.5
2024-02-24T07:40:15.456Z,96.4
2024-02-24T07:41:18.260Z,96.2
2024-02-24T07:42:19.671Z,96.3
2024-02-24T07:43:21.953Z,96.5
2024-02-24T07:44:23.798Z,96.5
2024-02-24T07:45:25.448Z,96.7
2024-02-24T07:46:27.590Z,96.5
2024-02-24T07:47:29.765Z,96.4
2024-02-24T07:48:31.984Z,96.3
2024-02-24T07:49:33.765Z,95.9
2024-02-24T07:50:35.518Z,96
2024-02-24T07:51:37.430Z,96.3
2024-02-24T07:52:39.395Z,96.2
2024-02-24T07:53:41.689Z,96.4
2024-02-24T07:54:43.429Z,96.5
2024-02-24T07:55:45.407Z,96.5
2024-02-24T07:56:47.524Z,96.7
2024-02-24T07:57:49.402Z,96.9
2024-02-24T07:58:51.427Z,97
2024-02-24T07:59:53.703Z,97.1
2024-02-24T08:00:55.551Z,97.3
2024-02-24T08:01:57.749Z,97.4
2024-02-24T08:02:59.611Z,97.4
2024-02-24T08:04:01.646Z,97.5
2024-02-24T08:05:03.654Z,97.5
2024-02-24T08:06:05.700Z,97.6
2024-02-24T08:07:09.232Z,97.7
2024-02-24T08:08:10.167Z,97.9
2024-02-24T08:09:11.732Z,97.8
2024-02-24T08:10:13.816Z,97.9
2024-02-24T08:11:16.237Z,98
2024-02-24T08:12:18.063Z,98
2024-02-24T08:13:19.779Z,98.2
2024-02-24T08:14:22.173Z,98.4
2024-02-24T08:15:23.732Z,98.5
2024-02-24T08:16:25.728Z,98.6
2024-02-24T08:17:28.125Z,98.8
2024-02-24T08:18:30.153Z,98.9
2024-02-24T08:19:31.821Z,98.9
2024-02-24T08:20:37.013Z,99
2024-02-24T08:21:37.439Z,99
2024-02-24T08:22:39.404Z,99.1
2024-02-24T08:23:42.199Z,99.3
2024-02-24T08:24:43.387Z,99.3
2024-02-24T08:25:45.377Z,99.3
2024-02-24T08:26:47.782Z,99.4
2024-02-24T08:27:49.389Z,99.1
2024-02-24T08:28:51.363Z,98.7
2024-02-24T08:29:54.249Z,98.6
2024-02-24T08:30:55.393Z,98.5
2024-02-24T08:31:57.382Z,98.6
2024-02-24T08:32:59.817Z,98.6
2024-02-24T08:34:01.881Z,98.6
2024-02-24T08:35:03.660Z,98.6
2024-02-24T08:36:05.666Z,98.5
2024-02-24T08:37:07.365Z,98.7
2024-02-24T08:38:09.731Z,98.9
2024-02-24T08:39:11.509Z,99
2024-02-24T08:40:13.379Z,99.1
2024-02-24T08:41:15.425Z,99.3
2024-02-24T08:42:17.358Z,99.5
2024-02-24T08:43:19.358Z,99.6
2024-02-24T08:44:21.478Z,99.7
2024-02-24T08:45:23.484Z,99.8
2024-02-24T08:46:25.353Z,99.9
2024-02-24T08:47:27.643Z,99.9
2024-02-24T08:48:29.685Z,99.9
2024-02-24T08:49:31.763Z,99.9
2024-02-24T08:50:33.513Z,99.9
2024-02-24T08:51:35.382Z,99.9
2024-02-24T08:52:50.265Z,99.9
2024-02-24T08:53:51.935Z,99.9
2024-02-24T08:54:53.250Z,99.9
2024-02-24T08:55:55.263Z,99.9
2024-02-24T08:56:57.567Z,99.9
2024-02-24T08:57:59.225Z,99.9
2024-02-24T08:59:01.278Z,99.9
2024-02-24T09:00:03.268Z,99.9
2024-02-24T09:01:05.417Z,99.9
2024-02-24T09:02:07.225Z,99.9
2024-02-24T09:03:09.577Z,99.9
2024-02-24T09:04:11.530Z,99.9
2024-02-24T09:05:13.849Z,99.9
2024-02-24T09:06:15.811Z,99.9
2024-02-24T09:07:17.436Z,99.9
2024-02-24T09:08:19.452Z,99.9
2024-02-24T09:09:21.251Z,99.9
2024-02-24T09:10:23.216Z,99.9
2024-02-24T09:11:25.642Z,99.9
2024-02-24T09:12:27.371Z,99.9
2024-02-24T09:13:29.736Z,99.9
2024-02-24T09:14:32.098Z,99.9
2024-02-24T09:15:33.548Z,99.9
2024-02-24T09:16:35.644Z,99.9
2024-02-24T09:17:37.740Z,99.9
2024-02-24T09:18:39.421Z,99.9
2024-02-24T09:19:41.519Z,99.9
2024-02-24T09:20:43.514Z,99.9
2024-02-24T09:21:45.209Z,99.9
2024-02-24T09:22:47.830Z,99.9
2024-02-24T09:23:49.929Z,99.9
2024-02-24T09:24:51.434Z,99.9
2024-02-24T09:25:53.495Z,99.9
2024-02-24T09:26:56.154Z,99.9
2024-02-24T09:27:58.107Z,99.9
2024-02-24T09:28:59.852Z,99.9
2024-02-24T09:30:02.301Z,99.9
2024-02-24T09:31:03.363Z,99.9
2024-02-24T09:32:05.727Z,99.9
2024-02-24T09:33:08.336Z,99.9
2024-02-24T09:34:11.881Z,99.9
2024-02-24T09:35:13.423Z,99.9
2024-02-24T09:36:14.992Z,99.9
2024-02-24T09:37:17.334Z,99.9
2024-02-24T09:38:19.008Z,99.9
2024-02-24T09:39:20.709Z,99.9
2024-02-24T09:40:22.832Z,99.9
2024-02-24T09:41:25.517Z,99.9
2024-02-24T09:42:27.825Z,99.9
2024-02-24T09:43:29.543Z,99.9
2024-02-24T09:44:31.030Z,99.9
2024-02-24T09:45:33.043Z,99.9
2024-02-24T09:46:38.102Z,99.9
2024-02-24T09:47:39.657Z,99.9
2024-02-24T09:48:42.023Z,99.9
2024-02-24T09:49:43.744Z,99.9
2024-02-24T09:50:46.123Z,99.9
2024-02-24T09:51:48.475Z,99.9
2024-02-24T09:52:50.506Z,99.9
2024-02-24T09:53:51.445Z,99.9
2024-02-24T09:54:53.482Z,99.9
2024-02-24T09:55:55.567Z,99.9
2024-02-24T09:56:58.470Z,99.9
2024-02-24T09:58:00.167Z,99.9
2024-02-24T09:59:01.425Z,99.9
2024-02-24T10:00:03.981Z,99.9
2024-02-24T10:01:05.942Z,99.9
2024-02-24T10:02:07.868Z,99.9
2024-02-24T10:03:10.525Z,99.9
2024-02-24T10:04:12.181Z,99.9
2024-02-24T10:05:14.008Z,99.9
2024-02-24T10:06:15.744Z,99.9
2024-02-24T10:07:17.287Z,99.9
2024-02-24T10:08:19.513Z,99.9
2024-02-24T10:09:22.150Z,99.9
2024-02-24T10:10:24.210Z,99.9
2024-02-24T10:11:26.124Z,99.9
2024-02-24T10:12:27.438Z,99.9
2024-02-24T10:13:30.059Z,99.9
2024-02-24T10:14:31.827Z,99.9
2024-02-24T10:15:33.615Z,99.7
2024-02-24T10:16:36.239Z,99.4
2024-02-24T10:17:37.413Z,99.5
2024-02-24T10:18:39.819Z,99.8
2024-02-24T10:19:41.621Z,99.9
2024-02-24T10:20:43.598Z,99.9
2024-02-24T10:21:46.589Z,99.9
2024-02-24T10:22:47.350Z,99.7
2024-02-24T10:23:50.069Z,99.6
2024-02-24T10:24:52.356Z,99.7
2024-02-24T10:25:54.110Z,99.5
2024-02-24T10:26:56.070Z,99.3
2024-02-24T10:27:57.408Z,99.2
2024-02-24T10:29:00.580Z,98.8
2024-02-24T10:30:01.840Z,98.5
2024-02-24T10:31:03.245Z,98.2
2024-02-24T10:32:05.568Z,98.1
2024-02-24T10:33:07.764Z,97.9
2024-02-24T10:34:10.406Z,98.2
2024-02-24T10:35:11.812Z,98.8
2024-02-24T10:36:13.578Z,98.9
2024-02-24T10:37:15.788Z,98.2
2024-02-24T10:38:34.645Z,98.1
2024-02-24T10:39:39.944Z,98.6
2024-02-24T10:40:41.884Z,98.3
2024-02-24T10:41:44.086Z,96.6
2024-02-24T10:42:45.879Z,95
2024-02-24T10:43:47.896Z,95.8
2024-02-24T10:44:50.254Z,95.6
2024-02-24T10:45:51.865Z,94.3
2024-02-24T10:46:54.041Z,91.5
2024-02-24T10:47:56.163Z,91.6
2024-02-24T10:48:58.180Z,92.1
2024-02-24T10:50:00.050Z,92
2024-02-24T10:51:02.298Z,91.8
2024-02-24T10:52:03.871Z,92.4
2024-02-24T10:53:06.119Z,92.6
2024-02-24T10:54:08.501Z,92.4
2024-02-24T10:55:09.862Z,92.5
2024-02-24T10:56:12.219Z,93
2024-02-24T10:57:13.858Z,92.5
2024-02-24T10:58:15.854Z,94.1
2024-02-24T10:59:18.090Z,96
2024-02-24T11:00:19.884Z,96.3
2024-02-24T11:01:21.996Z,93.7
2024-02-24T11:02:24.241Z,90.9
2024-02-24T11:03:25.874Z,86.4
2024-02-24T11:04:28.086Z,85.2
2024-02-24T11:05:30.487Z,84.3
2024-02-24T11:06:34.723Z,84.2
2024-02-24T11:07:35.630Z,85.4
2024-02-24T11:08:37.853Z,87.1
2024-02-24T11:09:39.582Z,88.4
2024-02-24T11:10:41.356Z,88.7
2024-02-24T11:11:43.804Z,88.4
2024-02-24T11:12:45.352Z,90.4
2024-02-24T11:14:04.339Z,90.4
2024-02-24T11:15:10.660Z,91
2024-02-24T11:16:12.641Z,90.4
2024-02-24T11:17:14.863Z,91.3
2024-02-24T11:18:17.251Z,91.5
2024-02-24T11:19:18.933Z,90.6
2024-02-24T11:20:21.244Z,90.8
2024-02-24T11:21:22.626Z,90.9
2024-02-24T11:22:24.646Z,89.8
2024-02-24T11:23:27.254Z,90.7
2024-02-24T11:24:28.890Z,89.5
2024-02-24T11:25:30.971Z,90.5
2024-02-24T11:26:32.844Z,90.2
2024-02-24T11:27:34.612Z,91.4
2024-02-24T11:28:36.644Z,90.8
2024-02-24T11:29:38.890Z,89.9
2024-02-24T11:30:40.909Z,90.8
2024-02-24T11:31:42.624Z,90.3
2024-02-24T11:32:45.062Z,90.2
2024-02-24T11:33:47.239Z,90
2024-02-24T11:34:48.855Z,89.5
2024-02-24T11:35:50.904Z,89.7
2024-02-24T11:36:55.399Z,88.9
2024-02-24T11:37:55.710Z,88.2
2024-02-24T11:38:57.991Z,89.1
2024-02-24T11:40:00.054Z,89.1
2024-02-24T11:41:01.713Z,89.2
2024-02-24T11:42:03.851Z,89.7
2024-02-24T11:43:05.695Z,89.6
2024-02-24T11:44:07.663Z,88.2
2024-02-24T11:45:10.022Z,88.2
2024-02-24T11:46:11.666Z,89
2024-02-24T11:47:14.114Z,89.2
2024-02-24T11:48:16.266Z,89.4
2024-02-24T11:49:18.002Z,89.9
2024-02-24T11:50:20.082Z,90.2
2024-02-24T11:51:21.695Z,90.9
2024-02-24T11:52:23.733Z,92.2
2024-02-24T11:53:25.693Z,91.6
2024-02-24T11:54:27.659Z,91.1
2024-02-24T11:55:29.920Z,90.3
2024-02-24T11:56:32.046Z,90.2
2024-02-24T11:57:33.650Z,88.9
2024-02-24T11:58:35.682Z,88.2
2024-02-24T11:59:37.866Z,87.9
2024-02-24T12:00:39.908Z,87.6
2024-02-24T12:01:41.702Z,87.3
2024-02-24T12:02:44.033Z,88.6
2024-02-24T12:03:45.673Z,89.6
2024-02-24T12:04:47.831Z,89.3
2024-02-24T12:05:49.990Z,87.2
2024-02-24T12:06:51.989Z,88.9
2024-02-24T12:07:53.670Z,90
2024-02-24T12:08:56.072Z,87.9
2024-02-24T12:09:57.665Z,87.7
2024-02-24T12:10:59.707Z,88.2
2024-02-24T12:12:01.953Z,86.3
2024-02-24T12:13:03.639Z,86.2
2024-02-24T12:14:05.651Z,86.6
2024-02-24T12:15:09.023Z,87.5
2024-02-24T12:16:09.640Z,85.2
2024-02-24T12:17:11.818Z,86.4
2024-02-24T12:18:14.405Z,86.8
2024-02-24T12:19:16.070Z,85.8
2024-02-24T12:20:17.686Z,84.3
2024-02-24T12:21:19.632Z,84.4
2024-02-24T12:22:21.624Z,84.8
2024-02-24T12:23:23.675Z,85.8
2024-02-24T12:24:25.723Z,86.2
2024-02-24T12:25:27.649Z,86.7
2024-02-24T12:26:29.740Z,87
2024-02-24T12:27:31.660Z,87.2
2024-02-24T12:28:33.643Z,85.9
2024-02-24T12:29:35.678Z,83.3
2024-02-24T12:30:37.740Z,82.1
2024-02-24T12:31:40.010Z,82.3
2024-02-24T12:32:41.819Z,82.8
2024-02-24T12:33:44.819Z,82.8
2024-02-24T12:34:46.203Z,82.3
2024-02-24T12:35:48.292Z,83.7
2024-02-24T12:36:49.979Z,82.4
2024-02-24T12:37:51.820Z,83.4
2024-02-24T12:38:54.433Z,83.7
2024-02-24T12:39:55.821Z,84.1
2024-02-24T12:40:57.785Z,81.7
2024-02-24T12:42:00.263Z,82.8
2024-02-24T12:43:01.847Z,83.3
2024-02-24T12:44:03.786Z,83.7
2024-02-24T12:45:06.116Z,84.9
2024-02-24T12:46:07.790Z,85.5
2024-02-24T12:47:09.800Z,85.7
2024-02-24T12:48:12.322Z,85.6
2024-02-24T12:49:14.105Z,83.3
2024-02-24T12:50:16.105Z,83.7
2024-02-24T12:51:17.787Z,84
2024-02-24T12:52:19.811Z,84.3
2024-02-24T12:53:21.958Z,82.9
2024-02-24T12:54:24.092Z,83.9
2024-02-24T12:55:25.768Z,83.6
2024-02-24T12:56:27.915Z,84.6
2024-02-24T12:57:29.872Z,85.2
2024-02-24T12:58:31.789Z,85.6
2024-02-24T12:59:33.993Z,85
2024-02-24T13:00:35.851Z,82
2024-02-24T13:01:37.802Z,79.1
2024-02-24T13:02:40.480Z,79.5
2024-02-24T13:03:42.223Z,81.1
2024-02-24T13:04:43.773Z,80.4
2024-02-24T13:05:46.327Z,79.1
2024-02-24T13:06:48.134Z,79.7
2024-02-24T13:07:53.107Z,80.3
2024-02-24T13:08:54.061Z,78.7
2024-02-24T13:09:55.856Z,77.7
2024-02-24T13:10:57.859Z,75.4
2024-02-24T13:11:59.948Z,76.4
2024-02-24T13:13:02.203Z,74.9
2024-02-24T13:14:03.644Z,75.5
2024-02-24T13:15:05.723Z,76.6
2024-02-24T13:16:07.642Z,75.6
2024-02-24T13:17:09.807Z,75
2024-02-24T13:18:12.253Z,72.3
2024-02-24T13:19:13.963Z,72.1
2024-02-24T13:20:16.056Z,72.7
2024-02-24T13:21:17.612Z,72.1
2024-02-24T13:22:19.741Z,72.6
2024-02-24T13:23:21.859Z,74.7
2024-02-24T13:24:23.588Z,74.7
2024-02-24T13:25:25.638Z,75
2024-02-24T13:26:27.701Z,75.5
2024-02-24T13:27:29.644Z,76
2024-02-24T13:28:31.608Z,73
2024-02-24T13:29:33.949Z,73.9
2024-02-24T13:30:35.621Z,73.4
2024-02-24T13:31:37.580Z,71.5
2024-02-24T13:32:40.051Z,71.5
2024-02-24T13:33:42.133Z,70.8
2024-02-24T13:34:43.867Z,71.2
2024-02-24T13:35:45.926Z,72.1
2024-02-24T13:36:47.578Z,71.6
2024-02-24T13:37:49.574Z,73.8
2024-02-24T13:38:52.070Z,72.8
2024-02-24T13:39:53.594Z,71.1
2024-02-24T13:40:55.691Z,72.3
2024-02-24T13:41:57.788Z,71.6
2024-02-24T13:42:59.565Z,72.5
2024-02-24T13:44:01.695Z,72
2024-02-24T13:45:03.805Z,70.8
2024-02-24T13:46:05.576Z,69.2
2024-02-24T13:47:07.828Z,70.3
2024-02-24T13:48:10.433Z,72.4
2024-02-24T13:49:12.119Z,73
2024-02-24T13:50:13.730Z,74.7